createdAt,value
2023-04-27T00:00:43.730Z,2.29
2023-04-27T00:01:43.769Z,2.30
2023-04-27T00:02:43.850Z,2.28
2023-04-27T00:03:43.792Z,2.30
2023-04-27T00:04:43.971Z,2.32
2023-04-27T00:05:44.003Z,2.33
2023-04-27T00:06:43.777Z,2.31
2023-04-27T00:07:43.786Z,2.30
2023-04-27T00:08:43.800Z,2.28
2023-04-27T00:09:43.802Z,2.28
2023-04-27T00:10:43.815Z,2.24
2023-04-27T00:11:43.823Z,2.25
2023-04-27T00:12:43.848Z,2.20
2023-04-27T00:13:43.834Z,2.19
2023-04-27T00:31:44.307Z,1.98
2023-04-27T00:32:44.007Z,1.97
2023-04-27T00:33:44.091Z,1.99
2023-04-27T00:34:44.016Z,1.99
2023-04-27T00:35:44.015Z,1.97
2023-04-27T00:36:44.035Z,1.98
2023-04-27T00:37:44.028Z,1.97
2023-04-27T00:38:44.039Z,1.96
2023-04-27T00:39:44.049Z,1.92
2023-04-27T00:40:44.053Z,1.92
2023-04-27T00:41:44.062Z,1.92
2023-04-27T00:42:44.073Z,1.96
2023-04-27T00:43:44.091Z,1.94
2023-04-27T00:44:44.092Z,1.91
2023-04-27T00:45:44.152Z,1.90
2023-04-27T00:46:44.108Z,1.91
2023-04-27T00:47:44.147Z,1.88
2023-04-27T00:48:44.128Z,1.87
2023-04-27T00:49:44.138Z,1.86
2023-04-27T00:50:44.145Z,1.86
2023-04-27T00:51:44.154Z,1.86
2023-04-27T00:52:44.175Z,1.83
2023-04-27T00:53:44.185Z,1.82
2023-04-27T00:54:44.178Z,1.80
2023-04-27T00:55:44.191Z,1.79
2023-04-27T00:56:44.198Z,1.80
2023-04-27T00:57:44.232Z,1.81
2023-04-27T00:58:44.218Z,1.81
2023-04-27T00:59:44.228Z,1.79
2023-04-27T01:00:44.238Z,1.78
2023-04-27T01:01:44.301Z,1.76
2023-04-27T01:02:44.337Z,1.77
2023-04-27T01:03:44.364Z,1.78
2023-04-27T01:04:44.269Z,1.77
2023-04-27T01:05:44.277Z,1.75
2023-04-27T01:06:44.286Z,1.76
2023-04-27T01:07:44.299Z,1.73
2023-04-27T01:08:44.307Z,1.68
2023-04-27T01:09:44.318Z,1.67
2023-04-27T01:10:44.324Z,1.66
2023-04-27T01:11:44.329Z,1.66
2023-04-27T01:12:44.336Z,1.66
2023-04-27T01:13:44.341Z,1.68
2023-04-27T01:14:44.346Z,1.67
2023-04-27T01:15:44.354Z,1.64
2023-04-27T01:16:44.433Z,1.63
2023-04-27T01:17:44.413Z,1.64
2023-04-27T01:18:44.397Z,1.66
2023-04-27T01:19:44.393Z,1.67
2023-04-27T01:20:44.402Z,1.64
2023-04-27T01:21:44.414Z,1.64
2023-04-27T01:22:44.419Z,1.64
2023-04-27T01:23:44.432Z,1.66
2023-04-27T01:24:44.433Z,1.67
2023-04-27T01:25:44.445Z,1.68
2023-04-27T01:26:44.459Z,1.66
2023-04-27T01:27:44.467Z,1.69
2023-04-27T01:28:44.484Z,1.68
2023-04-27T01:29:44.491Z,1.67
2023-04-27T01:30:44.495Z,1.69
2023-04-27T01:31:44.535Z,1.67
2023-04-27T01:32:44.569Z,1.69
2023-04-27T01:33:44.519Z,1.70
2023-04-27T01:34:44.528Z,1.69
2023-04-27T01:35:44.539Z,1.71
2023-04-27T01:36:44.548Z,1.73
2023-04-27T01:37:44.560Z,1.74
2023-04-27T01:38:44.567Z,1.75
2023-04-27T01:39:44.577Z,1.78
2023-04-27T01:40:44.596Z,1.78
2023-04-27T01:41:44.594Z,1.79
2023-04-27T01:42:44.612Z,1.78
2023-04-27T01:43:44.634Z,1.81
2023-04-27T01:44:44.631Z,1.81
2023-04-27T01:45:44.638Z,1.83
2023-04-27T01:46:44.693Z,1.83
2023-04-27T01:47:44.688Z,1.88
2023-04-27T01:48:44.677Z,1.87
2023-04-27T01:49:44.696Z,1.96
2023-04-27T01:50:44.700Z,2.02
2023-04-27T01:51:44.702Z,2.07
2023-04-27T01:52:44.724Z,2.11
2023-04-27T01:53:44.714Z,2.13
2023-04-27T01:54:44.730Z,2.16
2023-04-27T01:55:44.737Z,2.20
2023-04-27T01:56:44.747Z,2.23
2023-04-27T01:57:44.764Z,2.27
2023-04-27T01:58:44.772Z,2.29
2023-04-27T01:59:44.779Z,2.31
2023-04-27T02:00:44.784Z,2.30
2023-04-27T02:01:44.821Z,2.24
2023-04-27T02:02:44.861Z,2.19
2023-04-27T02:03:44.934Z,2.13
2023-04-27T02:04:44.861Z,2.07
2023-04-27T02:05:44.829Z,2.01
2023-04-27T02:06:44.840Z,1.96
2023-04-27T02:07:44.855Z,1.93
2023-04-27T02:08:44.858Z,1.90
2023-04-27T02:09:44.869Z,1.88
2023-04-27T02:10:44.875Z,1.89
2023-04-27T02:11:44.879Z,1.86
2023-04-27T02:12:44.889Z,1.86
2023-04-27T02:13:44.904Z,1.89
2023-04-27T02:14:44.916Z,1.91
2023-04-27T02:15:44.956Z,1.95
2023-04-27T02:16:44.926Z,1.98
2023-04-27T02:17:44.958Z,2.02
2023-04-27T02:18:44.946Z,2.04
2023-04-27T02:19:44.950Z,2.07
2023-04-27T02:20:44.965Z,2.11
2023-04-27T02:21:44.972Z,2.14
2023-04-27T02:22:44.981Z,2.19
2023-04-27T02:23:44.992Z,2.26
2023-04-27T02:24:45.001Z,2.33
2023-04-27T02:25:45.011Z,2.37
2023-04-27T02:26:45.024Z,2.42
2023-04-27T02:27:45.033Z,2.46
2023-04-27T02:28:45.042Z,2.54
2023-04-27T02:29:45.047Z,2.60
2023-04-27T02:30:45.056Z,2.64
2023-04-27T02:31:45.070Z,2.68
2023-04-27T02:32:45.157Z,2.68
2023-04-27T02:33:45.080Z,2.69
2023-04-27T02:34:45.088Z,2.70
2023-04-27T02:35:45.096Z,2.69
2023-04-27T02:36:45.105Z,2.67
2023-04-27T02:37:45.116Z,2.70
2023-04-27T02:38:45.123Z,2.73
2023-04-27T02:39:45.142Z,2.72
2023-04-27T02:40:45.144Z,2.73
2023-04-27T02:41:45.156Z,2.75
2023-04-27T02:42:45.159Z,2.75
2023-04-27T02:43:45.170Z,2.82
2023-04-27T02:44:45.186Z,2.85
2023-04-27T02:45:45.188Z,2.87
2023-04-27T02:46:45.240Z,2.90
2023-04-27T02:47:45.248Z,2.89
2023-04-27T02:48:45.222Z,2.89
2023-04-27T02:49:45.231Z,2.89
2023-04-27T02:50:45.240Z,2.92
2023-04-27T02:51:45.253Z,2.93
2023-04-27T02:52:45.263Z,2.94
2023-04-27T02:53:45.273Z,2.97
2023-04-27T02:54:45.278Z,2.96
2023-04-27T02:55:45.288Z,2.93
2023-04-27T02:56:45.292Z,2.90
2023-04-27T02:57:45.308Z,2.84
2023-04-27T02:58:45.324Z,2.80
2023-04-27T02:59:45.328Z,2.73
2023-04-27T03:00:45.444Z,2.69
2023-04-27T03:01:45.372Z,2.65
2023-04-27T03:02:45.418Z,2.60
2023-04-27T03:03:45.416Z,2.52
2023-04-27T03:04:45.470Z,2.49
2023-04-27T03:05:45.380Z,2.42
2023-04-27T03:06:45.387Z,2.40
2023-04-27T03:07:45.396Z,2.38
2023-04-27T03:08:45.405Z,2.38
2023-04-27T03:09:45.413Z,2.37
2023-04-27T03:10:45.422Z,2.37
2023-04-27T03:11:45.434Z,2.40
2023-04-27T03:12:45.443Z,2.40
2023-04-27T03:13:45.451Z,2.43
2023-04-27T03:14:45.454Z,2.46
2023-04-27T03:15:45.463Z,2.51
2023-04-27T03:16:45.582Z,2.52
2023-04-27T03:17:45.490Z,2.50
2023-04-27T03:18:45.498Z,2.48
2023-04-27T03:19:45.497Z,2.46
2023-04-27T03:20:45.502Z,2.48
2023-04-27T03:21:45.518Z,2.54
2023-04-27T03:22:45.540Z,2.56
2023-04-27T03:23:45.541Z,2.60
2023-04-27T03:24:45.549Z,2.62
2023-04-27T03:25:45.561Z,2.67
2023-04-27T03:26:45.574Z,2.71
2023-04-27T03:27:45.583Z,2.71
2023-04-27T03:28:45.591Z,2.75
2023-04-27T03:29:45.601Z,2.77
2023-04-27T03:30:45.613Z,2.76
2023-04-27T03:31:45.683Z,2.76
2023-04-27T03:32:47.564Z,2.70
2023-04-27T03:33:45.644Z,2.70
2023-04-27T03:34:45.653Z,2.62
2023-04-27T03:35:45.664Z,2.61
2023-04-27T03:36:45.666Z,2.54
2023-04-27T03:37:45.683Z,2.46
2023-04-27T03:38:45.700Z,2.40
2023-04-27T03:39:45.704Z,2.39
2023-04-27T03:40:45.716Z,2.37
2023-04-27T03:41:45.746Z,2.32
2023-04-27T03:42:45.739Z,2.27
2023-04-27T03:43:45.753Z,2.21
2023-04-27T03:44:45.761Z,2.14
2023-04-27T03:45:45.812Z,2.09
2023-04-27T03:46:45.780Z,2.05
2023-04-27T03:47:45.809Z,2.04
2023-04-27T03:48:45.795Z,2.02
2023-04-27T03:49:45.803Z,1.97
2023-04-27T03:50:45.811Z,1.92
2023-04-27T03:51:45.822Z,1.87
2023-04-27T03:52:45.836Z,1.84
2023-04-27T03:53:45.851Z,1.80
2023-04-27T03:54:45.859Z,1.78
2023-04-27T03:55:45.865Z,1.77
2023-04-27T03:56:45.881Z,1.74
2023-04-27T03:57:45.889Z,1.74
2023-04-27T03:58:45.907Z,1.71
2023-04-27T03:59:45.915Z,1.70
2023-04-27T04:00:45.922Z,1.65
2023-04-27T04:01:45.943Z,1.65
2023-04-27T04:02:45.991Z,1.67
2023-04-27T04:03:46.156Z,1.67
2023-04-27T04:04:46.065Z,1.68
2023-04-27T04:05:45.993Z,1.64
2023-04-27T04:06:45.985Z,1.59
2023-04-27T04:07:45.996Z,1.58
2023-04-27T04:08:46.013Z,1.55
2023-04-27T04:09:46.014Z,1.55
2023-04-27T04:10:46.027Z,1.56
2023-04-27T04:11:46.044Z,1.55
2023-04-27T04:12:46.052Z,1.56
2023-04-27T04:13:46.096Z,1.54
2023-04-27T04:14:46.075Z,1.57
2023-04-27T04:15:46.133Z,1.55
2023-04-27T04:16:46.099Z,1.56
2023-04-27T04:17:46.124Z,1.59
2023-04-27T04:18:46.125Z,1.62
2023-04-27T04:19:46.129Z,1.62
2023-04-27T04:20:46.134Z,1.67
2023-04-27T04:21:46.144Z,1.71
2023-04-27T04:22:46.151Z,1.77
2023-04-27T04:23:46.166Z,1.83
2023-04-27T04:24:46.166Z,1.92
2023-04-27T04:25:46.210Z,1.99
2023-04-27T04:26:46.188Z,2.10
2023-04-27T04:27:46.207Z,2.19
2023-04-27T04:28:46.211Z,2.27
2023-04-27T04:29:46.220Z,2.26
2023-04-27T04:30:46.220Z,2.30
2023-04-27T04:31:46.276Z,2.34
2023-04-27T04:32:46.310Z,2.38
2023-04-27T04:33:46.249Z,2.43
2023-04-27T04:34:46.262Z,2.49
2023-04-27T04:35:46.271Z,2.49
2023-04-27T04:36:46.280Z,2.53
2023-04-27T04:37:46.293Z,2.55
2023-04-27T04:38:46.306Z,2.60
2023-04-27T04:39:46.312Z,2.68
2023-04-27T04:40:46.326Z,2.73
2023-04-27T04:41:46.330Z,2.77
2023-04-27T04:42:46.342Z,2.87
2023-04-27T04:43:46.351Z,2.96
2023-04-27T04:44:46.357Z,3.04
2023-04-27T04:45:46.371Z,3.11
2023-04-27T04:46:46.385Z,3.15
2023-04-27T04:47:46.406Z,3.24
2023-04-27T04:48:46.421Z,3.33
2023-04-27T04:49:46.414Z,3.38
2023-04-27T04:50:46.422Z,3.47
2023-04-27T04:51:46.429Z,3.50
2023-04-27T04:52:46.441Z,3.51
2023-04-27T04:53:46.455Z,3.55
2023-04-27T04:54:46.455Z,3.57
2023-04-27T04:55:46.473Z,3.59
2023-04-27T04:56:46.476Z,3.61
2023-04-27T04:57:46.485Z,3.66
2023-04-27T04:58:46.492Z,3.72
2023-04-27T04:59:46.505Z,3.77
2023-04-27T05:00:46.512Z,3.81
2023-04-27T05:01:46.584Z,3.86
2023-04-27T05:02:46.638Z,3.89
2023-04-27T05:03:46.686Z,3.89
2023-04-27T05:04:46.645Z,3.92
2023-04-27T05:05:46.577Z,3.94
2023-04-27T05:06:46.596Z,3.98
2023-04-27T05:07:46.597Z,3.99
2023-04-27T05:08:46.616Z,3.94
2023-04-27T05:09:46.620Z,3.89
2023-04-27T05:10:46.636Z,3.86
2023-04-27T05:11:46.640Z,3.78
2023-04-27T05:12:46.648Z,3.73
2023-04-27T05:13:46.693Z,3.69
2023-04-27T05:14:46.668Z,3.61
2023-04-27T05:15:46.721Z,3.58
2023-04-27T05:16:46.685Z,3.54
2023-04-27T05:17:46.748Z,3.53
2023-04-27T05:18:46.712Z,3.53
2023-04-27T05:19:46.726Z,3.55
2023-04-27T05:20:46.732Z,3.57
2023-04-27T05:21:46.750Z,3.51
2023-04-27T05:22:46.759Z,3.49
2023-04-27T05:23:46.782Z,3.49
2023-04-27T05:24:46.777Z,3.44
2023-04-27T05:25:46.785Z,3.45
2023-04-27T05:26:46.798Z,3.44
2023-04-27T05:27:46.812Z,3.46
2023-04-27T05:28:46.821Z,3.50
2023-04-27T05:29:46.833Z,3.55
2023-04-27T05:30:46.839Z,3.59
2023-04-27T05:31:46.911Z,3.62
2023-04-27T05:32:46.859Z,3.62
2023-04-27T05:33:46.873Z,3.65
2023-04-27T05:34:48.816Z,3.66
2023-04-27T05:35:46.890Z,3.71
2023-04-27T05:36:46.899Z,3.73
2023-04-27T05:37:46.910Z,3.77
2023-04-27T05:38:46.922Z,3.82
2023-04-27T05:39:46.931Z,3.78
2023-04-27T05:40:46.938Z,3.78
2023-04-27T05:41:46.954Z,3.77
2023-04-27T05:42:46.957Z,3.77
2023-04-27T05:43:46.978Z,3.80
2023-04-27T05:44:46.983Z,3.78
2023-04-27T05:45:47.038Z,3.76
2023-04-27T05:46:47.007Z,3.79
2023-04-27T05:47:47.051Z,3.78
2023-04-27T05:48:47.031Z,3.83
2023-04-27T05:49:47.043Z,3.85
2023-04-27T05:50:47.061Z,3.96
2023-04-27T05:51:47.070Z,3.96
2023-04-27T05:52:47.083Z,3.96
2023-04-27T05:53:47.084Z,4.04
2023-04-27T05:54:47.102Z,4.07
2023-04-27T05:55:47.116Z,4.10
2023-04-27T05:56:47.130Z,4.13
2023-04-27T05:57:49.615Z,4.16
2023-04-27T05:58:47.147Z,4.20
2023-04-27T05:59:47.179Z,4.20
2023-04-27T06:00:47.179Z,4.21
2023-04-27T06:01:47.186Z,4.21
2023-04-27T06:02:47.225Z,4.22
2023-04-27T06:03:47.280Z,4.28
2023-04-27T06:04:47.252Z,4.37
2023-04-27T06:05:47.233Z,4.39
2023-04-27T06:06:47.244Z,4.45
2023-04-27T06:07:47.260Z,4.48
2023-04-27T06:08:47.266Z,4.50
2023-04-27T06:09:47.274Z,4.55
2023-04-27T06:10:47.288Z,4.56
2023-04-27T06:11:47.303Z,4.56
2023-04-27T06:12:47.310Z,4.58
2023-04-27T06:13:47.317Z,4.61
2023-04-27T06:14:47.333Z,4.62
2023-04-27T06:15:47.389Z,4.64
2023-04-27T06:16:47.368Z,4.65
2023-04-27T06:17:47.385Z,4.71
2023-04-27T06:18:47.410Z,4.73
2023-04-27T06:19:47.389Z,4.72
2023-04-27T06:20:47.401Z,4.75
2023-04-27T06:21:47.412Z,4.70
2023-04-27T06:22:47.432Z,4.66
2023-04-27T06:23:47.440Z,4.69
2023-04-27T06:24:47.452Z,4.70
2023-04-27T06:25:47.463Z,4.71
2023-04-27T06:26:47.473Z,4.71
2023-04-27T06:27:47.486Z,4.68
2023-04-27T06:28:47.500Z,4.66
2023-04-27T06:29:47.506Z,4.68
2023-04-27T06:30:47.520Z,4.72
2023-04-27T06:31:47.585Z,4.78
2023-04-27T06:32:47.578Z,4.79
2023-04-27T06:33:47.549Z,4.82
2023-04-27T06:34:47.551Z,4.83
2023-04-27T06:35:47.682Z,4.83
2023-04-27T06:36:47.577Z,4.85
2023-04-27T06:37:47.591Z,4.85
2023-04-27T06:38:47.610Z,4.91
2023-04-27T06:39:47.611Z,4.94
2023-04-27T06:40:47.615Z,4.96
2023-04-27T06:41:47.627Z,4.97
2023-04-27T06:42:47.639Z,5.02
2023-04-27T06:43:47.645Z,5.04
2023-04-27T06:44:47.655Z,5.07
2023-04-27T06:45:47.674Z,5.09
2023-04-27T06:46:47.678Z,5.17
2023-04-27T06:47:47.723Z,5.19
2023-04-27T06:48:47.717Z,5.22
2023-04-27T06:49:49.586Z,5.24
2023-04-27T06:50:47.730Z,5.27
2023-04-27T06:51:47.732Z,5.31
2023-04-27T06:52:47.753Z,5.34
2023-04-27T06:53:47.776Z,5.38
2023-04-27T06:54:47.772Z,5.43
2023-04-27T06:55:48.609Z,5.46
2023-04-27T06:56:47.794Z,5.51
2023-04-27T06:57:47.807Z,5.54
2023-04-27T06:58:47.837Z,5.57
2023-04-27T06:59:47.824Z,5.58
2023-04-27T07:00:47.838Z,5.60
2023-04-27T07:01:47.905Z,5.64
2023-04-27T07:02:47.914Z,5.67
2023-04-27T07:03:47.967Z,5.70
2023-04-27T07:04:47.932Z,5.74
2023-04-27T07:05:47.886Z,5.75
2023-04-27T07:06:47.896Z,5.79
2023-04-27T07:07:47.907Z,5.80
2023-04-27T07:08:47.918Z,5.78
2023-04-27T07:09:47.941Z,5.78
2023-04-27T07:10:47.946Z,5.80
2023-04-27T07:11:47.952Z,5.81
2023-04-27T07:12:47.974Z,5.85
2023-04-27T07:13:47.979Z,5.90
2023-04-27T07:14:47.991Z,5.99
2023-04-27T07:15:48.026Z,6.10
2023-04-27T07:16:48.018Z,6.22
2023-04-27T07:17:48.065Z,6.35
2023-04-27T07:18:48.042Z,6.45
2023-04-27T07:19:48.049Z,6.53
2023-04-27T07:20:48.063Z,6.59
2023-04-27T07:21:48.075Z,6.70
2023-04-27T07:22:48.089Z,6.89
2023-04-27T07:23:48.101Z,7.10
2023-04-27T07:24:48.121Z,7.33
2023-04-27T07:25:48.123Z,7.58
2023-04-27T07:26:48.129Z,7.77
2023-04-27T07:27:48.143Z,7.91
2023-04-27T07:28:48.159Z,7.99
2023-04-27T07:29:48.167Z,8.05
2023-04-27T07:30:48.184Z,8.04
2023-04-27T07:31:48.937Z,8.01
2023-04-27T07:32:48.348Z,8.03
2023-04-27T07:33:48.217Z,7.95
2023-04-27T07:34:53.242Z,7.96
2023-04-27T07:35:48.242Z,7.91
2023-04-27T07:36:48.249Z,7.90
2023-04-27T07:37:48.261Z,7.83
2023-04-27T07:38:48.269Z,7.70
2023-04-27T07:39:48.282Z,7.59
2023-04-27T07:40:48.284Z,7.55
2023-04-27T07:41:48.308Z,7.50
2023-04-27T07:42:48.330Z,7.55
2023-04-27T07:43:48.332Z,7.63
2023-04-27T07:44:48.339Z,7.68
2023-04-27T07:45:48.385Z,7.65
2023-04-27T07:46:48.362Z,7.61
2023-04-27T07:47:48.379Z,7.59
2023-04-27T07:48:48.376Z,7.53
2023-04-27T07:49:48.387Z,7.49
2023-04-27T07:50:48.406Z,7.51
2023-04-27T07:51:48.410Z,7.53
2023-04-27T07:52:48.413Z,7.58
2023-04-27T07:53:48.423Z,7.68
2023-04-27T07:54:48.444Z,7.77
2023-04-27T07:55:48.458Z,7.84
2023-04-27T07:56:48.465Z,7.94
2023-04-27T07:57:48.471Z,8.06
2023-04-27T07:58:48.494Z,8.23
2023-04-27T07:59:48.503Z,8.42
2023-04-27T08:00:48.509Z,8.67
2023-04-27T08:01:48.552Z,8.79
2023-04-27T08:02:48.664Z,8.80
2023-04-27T08:03:48.749Z,8.83
2023-04-27T08:04:49.015Z,8.81
2023-04-27T08:05:49.058Z,8.83
2023-04-27T08:06:48.875Z,8.89
2023-04-27T08:07:48.833Z,8.99
2023-04-27T08:08:48.586Z,8.96
2023-04-27T08:09:48.597Z,8.85
2023-04-27T08:10:48.611Z,8.54
2023-04-27T08:11:48.622Z,8.43
2023-04-27T08:12:48.648Z,8.28
2023-04-27T08:13:48.652Z,8.24
2023-04-27T08:14:48.664Z,8.11
2023-04-27T08:15:48.677Z,8.06
2023-04-27T08:16:48.713Z,8.03
2023-04-27T08:17:48.750Z,8.02
2023-04-27T08:18:48.704Z,8.10
2023-04-27T08:19:48.714Z,8.17
2023-04-27T08:20:48.728Z,8.28
2023-04-27T08:21:48.739Z,8.39
2023-04-27T08:22:48.749Z,8.46
2023-04-27T08:23:48.762Z,8.48
2023-04-27T08:24:48.790Z,8.57
2023-04-27T08:25:48.786Z,8.70
2023-04-27T08:26:48.800Z,8.80
2023-04-27T08:27:48.811Z,8.93
2023-04-27T08:28:48.827Z,9.13
2023-04-27T08:29:48.834Z,9.32
2023-04-27T08:30:48.857Z,9.48
2023-04-27T08:31:48.995Z,9.56
2023-04-27T08:32:48.924Z,9.53
2023-04-27T08:33:48.891Z,9.35
2023-04-27T08:34:48.906Z,9.28
2023-04-27T08:35:48.907Z,9.26
2023-04-27T08:36:48.931Z,9.26
2023-04-27T08:37:48.928Z,9.24
2023-04-27T08:38:48.953Z,9.23
2023-04-27T08:39:48.966Z,9.18
2023-04-27T08:40:48.968Z,9.05
2023-04-27T08:41:48.973Z,8.81
2023-04-27T08:42:48.986Z,8.70
2023-04-27T08:43:48.999Z,8.58
2023-04-27T08:44:49.011Z,8.58
2023-04-27T08:45:49.033Z,8.53
2023-04-27T08:46:49.057Z,8.46
2023-04-27T08:47:49.065Z,8.39
2023-04-27T08:48:49.054Z,8.42
2023-04-27T08:49:49.063Z,8.39
2023-04-27T08:50:49.080Z,8.48
2023-04-27T08:51:49.093Z,8.62
2023-04-27T08:52:49.101Z,8.77
2023-04-27T08:53:49.107Z,8.80
2023-04-27T08:54:49.128Z,8.68
2023-04-27T08:55:49.135Z,8.56
2023-04-27T08:56:49.142Z,8.52
2023-04-27T08:57:49.157Z,8.43
2023-04-27T08:58:49.161Z,8.36
2023-04-27T08:59:49.180Z,8.32
2023-04-27T09:00:50.701Z,8.17
2023-04-27T09:01:49.542Z,8.18
2023-04-27T09:02:49.444Z,8.20
2023-04-27T09:03:49.386Z,8.23
2023-04-27T09:04:49.310Z,8.25
2023-04-27T09:06:00.515Z,8.29
2023-04-27T09:06:49.258Z,8.38
2023-04-27T09:07:49.273Z,8.48
2023-04-27T09:08:49.277Z,8.59
2023-04-27T09:09:49.308Z,8.67
2023-04-27T09:10:49.320Z,8.81
2023-04-27T09:11:49.318Z,8.88
2023-04-27T09:12:49.330Z,9.02
2023-04-27T09:13:49.483Z,9.17
2023-04-27T09:14:49.369Z,9.34
2023-04-27T09:15:49.406Z,9.50
2023-04-27T09:16:49.441Z,9.68
2023-04-27T09:17:49.440Z,9.87
2023-04-27T09:18:49.395Z,10.11
2023-04-27T09:19:49.403Z,10.34
2023-04-27T09:20:49.412Z,10.55
2023-04-27T09:21:49.418Z,10.72
2023-04-27T09:22:49.440Z,10.80
2023-04-27T09:23:49.439Z,10.84
2023-04-27T09:24:49.444Z,10.85
2023-04-27T09:25:49.461Z,10.81
2023-04-27T09:26:49.477Z,10.79
2023-04-27T09:27:49.486Z,10.72
2023-04-27T09:28:49.499Z,10.71
2023-04-27T09:29:49.511Z,10.53
2023-04-27T09:30:49.523Z,10.45
2023-04-27T09:31:49.587Z,10.42
2023-04-27T09:32:49.618Z,10.33
2023-04-27T09:33:49.560Z,10.06
2023-04-27T09:34:49.569Z,9.76
2023-04-27T09:35:49.576Z,9.64
2023-04-27T09:36:49.585Z,9.54
2023-04-27T09:37:49.604Z,9.29
2023-04-27T09:38:49.619Z,9.14
2023-04-27T09:39:49.625Z,8.94
2023-04-27T09:40:49.631Z,8.88
2023-04-27T09:41:49.650Z,8.66
2023-04-27T09:42:49.655Z,8.66
2023-04-27T09:43:49.663Z,8.55
2023-04-27T09:44:49.669Z,8.55
2023-04-27T09:45:49.704Z,8.52
2023-04-27T09:46:49.695Z,8.50
2023-04-27T09:47:49.766Z,8.54
2023-04-27T09:48:49.729Z,8.61
2023-04-27T09:49:49.734Z,8.68
2023-04-27T09:50:49.740Z,8.80
2023-04-27T09:51:49.746Z,8.89
2023-04-27T09:52:49.748Z,9.11
2023-04-27T09:53:49.761Z,9.36
2023-04-27T09:54:49.774Z,9.66
2023-04-27T09:55:51.159Z,9.83
2023-04-27T09:56:49.780Z,10.08
2023-04-27T09:57:49.790Z,10.27
2023-04-27T09:58:49.794Z,10.43
2023-04-27T09:59:49.818Z,10.53
2023-04-27T10:00:49.935Z,10.61
2023-04-27T10:01:49.965Z,10.70
2023-04-27T10:02:53.452Z,10.76
2023-04-27T10:03:49.903Z,10.81
2023-04-27T10:04:49.863Z,10.81
2023-04-27T10:05:49.863Z,10.72
2023-04-27T10:06:49.866Z,10.64
2023-04-27T10:07:49.878Z,10.65
2023-04-27T10:08:49.890Z,10.64
2023-04-27T10:09:49.888Z,10.74
2023-04-27T10:10:49.908Z,10.83
2023-04-27T10:11:49.913Z,10.97
2023-04-27T10:12:49.928Z,11.07
2023-04-27T10:13:50.685Z,11.17
2023-04-27T10:14:49.943Z,11.23
2023-04-27T10:15:49.957Z,11.32
2023-04-27T10:16:50.019Z,11.29
2023-04-27T10:17:50.062Z,11.27
2023-04-27T10:18:49.995Z,11.29
2023-04-27T10:19:50.749Z,11.24
2023-04-27T10:20:50.019Z,11.05
2023-04-27T10:21:50.032Z,10.73
2023-04-27T10:22:50.080Z,10.45
2023-04-27T10:23:50.067Z,10.35
2023-04-27T10:24:50.060Z,10.36
2023-04-27T10:25:50.074Z,10.44
2023-04-27T10:26:50.083Z,10.53
2023-04-27T10:27:50.090Z,10.62
2023-04-27T10:28:50.112Z,10.74
2023-04-27T10:29:50.123Z,10.83
2023-04-27T10:30:50.189Z,10.86
2023-04-27T10:31:50.139Z,10.85
2023-04-27T10:32:50.213Z,10.88
2023-04-27T10:33:50.164Z,10.91
2023-04-27T10:34:50.165Z,10.91
2023-04-27T10:35:50.182Z,10.75
2023-04-27T10:36:50.197Z,10.74
2023-04-27T10:37:50.198Z,10.76
2023-04-27T10:38:50.216Z,10.78
2023-04-27T10:39:51.250Z,10.81
2023-04-27T10:40:50.238Z,10.84
2023-04-27T10:41:50.248Z,10.82
2023-04-27T10:42:50.263Z,10.84
2023-04-27T10:43:50.268Z,10.93
2023-04-27T10:44:50.285Z,11.02
2023-04-27T10:45:50.303Z,11.04
2023-04-27T10:46:50.301Z,11.19
2023-04-27T10:47:50.318Z,11.29
2023-04-27T10:48:50.325Z,11.38
2023-04-27T10:49:50.332Z,11.40
2023-04-27T10:50:50.358Z,11.39
2023-04-27T10:51:50.346Z,11.35
2023-04-27T10:52:50.364Z,11.24
2023-04-27T10:53:50.373Z,11.17
2023-04-27T10:54:50.389Z,11.16
2023-04-27T10:55:50.403Z,11.17
2023-04-27T10:56:50.406Z,11.13
2023-04-27T10:57:50.407Z,11.18
2023-04-27T10:58:50.422Z,11.25
2023-04-27T10:59:50.469Z,11.39
2023-04-27T11:00:50.469Z,11.41
2023-04-27T11:01:50.506Z,11.45
2023-04-27T11:02:50.495Z,11.41
2023-04-27T11:03:50.515Z,11.29
2023-04-27T11:04:50.556Z,11.22
2023-04-27T11:05:50.493Z,11.16
2023-04-27T11:06:50.538Z,11.12
2023-04-27T11:07:50.521Z,11.16
2023-04-27T11:08:50.515Z,11.15
2023-04-27T11:09:50.543Z,11.02
2023-04-27T11:10:50.620Z,10.82
2023-04-27T11:11:50.540Z,10.53
2023-04-27T11:12:50.564Z,10.32
2023-04-27T11:13:50.565Z,10.24
2023-04-27T11:14:50.574Z,10.32
2023-04-27T11:15:50.641Z,10.46
2023-04-27T11:16:50.592Z,10.65
2023-04-27T11:17:50.655Z,10.69
2023-04-27T11:18:50.627Z,10.69
2023-04-27T11:19:50.635Z,10.65
2023-04-27T11:20:50.637Z,10.65
2023-04-27T11:21:50.643Z,10.57
2023-04-27T11:22:50.667Z,10.54
2023-04-27T11:23:50.673Z,10.63
2023-04-27T11:24:50.690Z,10.69
2023-04-27T11:25:50.808Z,10.82
2023-04-27T11:26:50.705Z,10.92
2023-04-27T11:27:50.710Z,10.91
2023-04-27T11:28:50.727Z,11.04
2023-04-27T11:29:50.744Z,11.19
2023-04-27T11:30:50.759Z,11.17
2023-04-27T11:31:50.810Z,11.09
2023-04-27T11:32:50.786Z,11.02
2023-04-27T11:33:50.788Z,11.02
2023-04-27T11:34:50.803Z,11.09
2023-04-27T11:35:50.816Z,11.13
2023-04-27T11:36:50.824Z,11.16
2023-04-27T11:37:50.952Z,11.13
2023-04-27T11:38:50.900Z,11.02
2023-04-27T11:39:50.855Z,10.76
2023-04-27T11:40:50.866Z,10.65
2023-04-27T11:41:50.874Z,10.54
2023-04-27T11:42:50.888Z,10.67
2023-04-27T11:43:50.900Z,10.75
2023-04-27T11:44:50.913Z,10.92
2023-04-27T11:45:50.921Z,11.16
2023-04-27T11:46:50.987Z,11.32
2023-04-27T11:47:50.959Z,11.39
2023-04-27T11:48:50.959Z,11.49
2023-04-27T11:49:50.969Z,11.55
2023-04-27T11:50:50.987Z,11.70
2023-04-27T11:51:50.999Z,11.75
2023-04-27T11:52:51.011Z,11.92
2023-04-27T11:53:51.022Z,12.12
2023-04-27T11:54:51.050Z,12.40
2023-04-27T11:55:51.052Z,12.61
2023-04-27T11:56:51.075Z,12.72
2023-04-27T11:57:51.076Z,12.82
2023-04-27T11:58:51.088Z,12.83
2023-04-27T11:59:51.094Z,12.92
2023-04-27T12:00:51.120Z,12.99
2023-04-27T12:01:51.127Z,13.08
2023-04-27T12:02:51.256Z,13.05
2023-04-27T12:03:51.239Z,13.11
2023-04-27T12:04:51.225Z,13.05
2023-04-27T12:05:51.247Z,12.98
2023-04-27T12:06:51.162Z,12.79
2023-04-27T12:07:51.180Z,12.66
2023-04-27T12:08:51.194Z,12.73
2023-04-27T12:09:51.213Z,12.55
2023-04-27T12:10:51.228Z,12.37
2023-04-27T12:11:51.233Z,12.06
2023-04-27T12:12:51.244Z,11.89
2023-04-27T12:13:51.246Z,11.78
2023-04-27T12:14:51.304Z,11.74
2023-04-27T12:15:51.287Z,11.78
2023-04-27T12:16:51.343Z,11.89
2023-04-27T12:17:51.329Z,11.87
2023-04-27T12:18:51.326Z,11.95
2023-04-27T12:19:51.318Z,11.97
2023-04-27T12:20:51.359Z,12.00
2023-04-27T12:21:51.335Z,11.92
2023-04-27T12:22:51.353Z,11.92
2023-04-27T12:23:51.360Z,11.87
2023-04-27T12:24:51.378Z,11.87
2023-04-27T12:25:51.396Z,11.99
2023-04-27T12:26:51.392Z,12.05
2023-04-27T12:27:51.409Z,12.06
2023-04-27T12:28:51.418Z,12.06
2023-04-27T12:29:51.427Z,12.08
2023-04-27T12:30:51.463Z,12.26
2023-04-27T12:31:51.452Z,12.37
2023-04-27T12:32:51.488Z,12.57
2023-04-27T12:33:51.473Z,12.77
2023-04-27T12:34:51.490Z,12.63
2023-04-27T12:35:51.503Z,12.56
2023-04-27T12:36:51.520Z,12.55
2023-04-27T12:37:51.537Z,12.54
2023-04-27T12:38:51.551Z,12.62
2023-04-27T12:39:51.558Z,12.50
2023-04-27T12:40:51.611Z,12.55
2023-04-27T12:41:51.615Z,12.54
2023-04-27T12:42:51.623Z,12.49
2023-04-27T12:43:51.622Z,12.32
2023-04-27T12:44:51.628Z,12.18
2023-04-27T12:45:51.679Z,12.17
2023-04-27T12:46:51.750Z,12.21
2023-04-27T12:48:02.346Z,12.34
2023-04-27T12:48:51.726Z,12.46
2023-04-27T12:49:51.693Z,12.52
2023-04-27T12:50:51.713Z,12.58
2023-04-27T12:51:51.797Z,12.44
2023-04-27T12:52:51.741Z,12.46
2023-04-27T12:53:51.763Z,12.54
2023-04-27T12:54:51.764Z,12.65
2023-04-27T12:55:51.777Z,12.76
2023-04-27T12:56:51.779Z,12.90
2023-04-27T12:57:51.784Z,12.94
2023-04-27T12:58:51.793Z,12.99
2023-04-27T12:59:51.808Z,12.72
2023-04-27T13:00:51.827Z,12.52
2023-04-27T13:01:51.850Z,12.37
2023-04-27T13:02:52.015Z,12.09
2023-04-27T13:03:51.995Z,11.80
2023-04-27T13:04:51.922Z,11.70
2023-04-27T13:05:51.886Z,11.62
2023-04-27T13:06:51.927Z,11.63
2023-04-27T13:07:51.911Z,11.54
2023-04-27T13:08:51.928Z,11.47
2023-04-27T13:09:51.941Z,11.36
2023-04-27T13:10:51.949Z,11.28
2023-04-27T13:11:51.969Z,11.05
2023-04-27T13:12:51.980Z,11.01
2023-04-27T13:13:52.003Z,11.03
2023-04-27T13:14:52.006Z,10.98
2023-04-27T13:15:52.036Z,11.02
2023-04-27T13:16:52.041Z,11.01
2023-04-27T13:17:52.056Z,11.03
2023-04-27T13:18:52.053Z,11.15
2023-04-27T13:19:52.066Z,11.31
2023-04-27T13:20:52.077Z,11.40
2023-04-27T13:21:52.093Z,11.43
2023-04-27T13:22:52.104Z,11.53
2023-04-27T13:23:52.118Z,11.71
2023-04-27T13:24:52.126Z,11.76
2023-04-27T13:25:52.156Z,11.79
2023-04-27T13:26:52.155Z,11.81
2023-04-27T13:27:52.174Z,11.78